Time;durP1;ratioP1;P1;durP2;ratioP2;P2;SDS_P1;SDS_P2;PMS_P1;PMS_P2;Temp;Humidity;BMP_temperature;BMP_pressure;BME280_temperature;BME280_humidity;BME280_pressure;Samples;Min_cycle;Max_cycle;Signal;HPM_P1;HPM_P2
2023/08/13 00:01:02;;;;;;;3.40;2.25;;;22.10;62.80;;;;;;5054763;28;20171;-66
2023/08/13 00:03:28;;;;;;;3.28;2.40;;;22.10;62.90;;;;;;5055863;28;20170;-66
2023/08/13 00:05:53;;;;;;;6.03;2.70;;;22.10;62.70;;;;;;5055803;28;20171;-65
2023/08/13 00:08:19;;;;;;;3.47;2.20;;;22.10;62.70;;;;;;5054836;28;20977;-65
2023/08/13 00:10:44;;;;;;;4.20;2.65;;;22.10;62.70;;;;;;5055700;28;20171;-65
2023/08/13 00:13:10;;;;;;;3.80;2.60;;;22.00;62.70;;;;;;5055191;28;20262;-64
2023/08/13 00:15:36;;;;;;;4.55;2.33;;;22.10;62.60;;;;;;5054918;28;20214;-64
2023/08/13 00:18:01;;;;;;;4.07;1.92;;;22.10;62.50;;;;;;5055429;28;20167;-66
2023/08/13 00:20:27;;;;;;;3.90;2.15;;;22.10;62.50;;;;;;5055578;28;20171;-65
2023/08/13 00:22:53;;;;;;;5.03;2.53;;;22.10;62.50;;;;;;5054841;28;20175;-65
2023/08/13 00:25:18;;;;;;;5.68;2.25;;;22.00;62.40;;;;;;5055177;28;20680;-65
2023/08/13 00:27:44;;;;;;;2.92;1.95;;;22.10;62.40;;;;;;5055603;28;20182;-65
2023/08/13 00:30:10;;;;;;;4.78;2.08;;;22.00;62.10;;;;;;5054346;28;20174;-65
2023/08/13 00:32:35;;;;;;;4.03;2.30;;;22.10;62.20;;;;;;5055364;28;20175;-65
2023/08/13 00:35:01;;;;;;;3.80;1.90;;;22.10;62.10;;;;;;5055140;28;20273;-67
2023/08/13 00:37:26;;;;;;;5.07;2.35;;;22.10;62.90;;;;;;5054644;28;20606;-65
2023/08/13 00:39:52;;;;;;;4.88;2.00;;;22.00;62.10;;;;;;5055234;28;20551;-66
2023/08/13 00:42:18;;;;;;;2.90;2.13;;;22.00;62.00;;;;;;5054621;28;20544;-66
2023/08/13 00:44:43;;;;;;;4.38;2.20;;;22.00;61.90;;;;;;5054695;28;20227;-66
2023/08/13 00:47:09;;;;;;;3.38;2.15;;;22.00;61.70;;;;;;5054682;28;20519;-65
2023/08/13 00:49:35;;;;;;;5.97;2.47;;;22.00;61.90;;;;;;5036425;28;20182;-65
2023/08/13 00:52:00;;;;;;;4.50;2.30;;;22.00;61.70;;;;;;5052843;28;20167;-64
2023/08/13 00:54:26;;;;;;;4.22;1.98;;;22.00;61.90;;;;;;5053640;28;20214;-65
2023/08/13 00:56:52;;;;;;;6.90;2.03;;;22.00;61.90;;;;;;5053110;28;20650;-65
2023/08/13 00:59:18;;;;;;;4.50;2.10;;;22.00;62.00;;;;;;5054472;28;20183;-66
2023/08/13 01:01:44;;;;;;;4.03;2.00;;;22.00;62.70;;;;;;5054653;28;20187;-65
2023/08/13 01:04:09;;;;;;;3.25;1.88;;;22.00;61.80;;;;;;5053676;28;20175;-66
2023/08/13 01:07:22;;;;;;;6.05;2.40;;;22.00;61.90;;;;;;5054718;28;20171;-65
2023/08/13 01:10:14;;;;;;;3.38;1.75;;;22.00;61.90;;;;;;5044229;28;20191;-64
2023/08/13 01:12:50;;;;;;;3.17;2.03;;;22.00;61.80;;;;;;5053966;28;20179;-65
2023/08/13 01:15:17;;;;;;;2.95;2.00;;;22.00;61.80;;;;;;5054068;28;20685;-64
2023/08/13 01:17:43;;;;;;;5.18;2.22;;;21.90;61.60;;;;;;5053719;28;20175;-65
2023/08/13 01:20:09;;;;;;;4.68;2.40;;;22.00;61.70;;;;;;5036532;28;20199;-65
2023/08/13 01:22:38;;;;;;;5.40;2.13;;;21.90;61.70;;;;;;5054536;28;20649;-64
2023/08/13 01:25:07;;;;;;;3.40;1.88;;;21.90;61.60;;;;;;5053402;28;20172;-66
2023/08/13 01:27:53;;;;;;;2.97;1.80;;;21.90;61.70;;;;;;5054660;28;20305;-65
2023/08/13 01:30:24;;;;;;;5.07;2.38;;;21.90;61.60;;;;;;5037733;28;20179;-65
2023/08/13 01:33:02;;;;;;;3.97;2.10;;;21.90;61.60;;;;;;5052157;28;20182;-65
2023/08/13 01:35:27;;;;;;;4.70;2.33;;;21.90;62.50;;;;;;5054181;28;20293;-66
2023/08/13 01:37:53;;;;;;;3.95;2.30;;;21.90;61.80;;;;;;5052975;28;20217;-66
2023/08/13 01:40:18;;;;;;;3.58;1.90;;;21.90;61.60;;;;;;5052947;28;20709;-66
2023/08/13 01:42:44;;;;;;;4.93;1.85;;;21.90;61.70;;;;;;5054021;28;20175;-66
2023/08/13 01:45:10;;;;;;;2.55;2.03;;;21.90;61.60;;;;;;5053394;28;20230;-66
2023/08/13 01:47:35;;;;;;;5.85;2.33;;;21.90;61.70;;;;;;5053144;28;20635;-65
2023/08/13 01:50:01;;;;;;;2.55;1.90;;;21.90;61.50;;;;;;5053811;28;20534;-65
2023/08/13 01:52:26;;;;;;;3.83;2.35;;;21.90;61.60;;;;;;5053921;28;20293;-64
2023/08/13 01:54:52;;;;;;;3.63;2.00;;;21.90;61.70;;;;;;5052815;28;20210;-66
2023/08/13 01:57:18;;;;;;;4.53;2.22;;;21.90;61.70;;;;;;5053510;28;20185;-65
2023/08/13 01:59:43;;;;;;;5.25;2.00;;;21.80;61.70;;;;;;5052935;28;20261;-67
2023/08/13 02:02:09;;;;;;;3.83;2.05;;;21.90;61.70;;;;;;5052567;28;20218;-66
2023/08/13 02:04:35;;;;;;;4.40;1.92;;;21.80;61.60;;;;;;5053079;28;20216;-67
2023/08/13 02:07:00;;;;;;;4.03;2.00;;;21.80;61.70;;;;;;5052709;28;20163;-66
2023/08/13 02:09:26;;;;;;;4.32;2.17;;;21.90;61.60;;;;;;5053514;28;20171;-65
2023/08/13 02:11:51;;;;;;;2.50;1.63;;;21.80;61.70;;;;;;5053744;28;20182;-65
2023/08/13 02:14:17;;;;;;;1.98;1.73;;;21.80;61.60;;;;;;5052376;28;20210;-65
2023/08/13 02:16:42;;;;;;;4.20;2.20;;;21.80;61.80;;;;;;5053241;28;20164;-66
2023/08/13 02:19:08;;;;;;;3.67;2.00;;;21.80;61.60;;;;;;5053220;28;20273;-65
2023/08/13 02:21:33;;;;;;;3.85;1.90;;;21.80;61.60;;;;;;5052484;28;20206;-66
2023/08/13 02:23:59;;;;;;;4.00;2.42;;;21.80;61.50;;;;;;5053037;28;20205;-66
2023/08/13 02:26:24;;;;;;;3.88;2.53;;;21.80;62.40;;;;;;5053086;28;20175;-65
2023/08/13 02:28:50;;;;;;;3.35;1.83;;;21.80;61.60;;;;;;5052547;28;20221;-65
2023/08/13 02:31:15;;;;;;;6.70;2.58;;;21.80;61.60;;;;;;5052790;28;20186;-66
2023/08/13 02:33:41;;;;;;;4.05;2.00;;;21.80;61.60;;;;;;5053199;28;20217;-66
2023/08/13 02:36:06;;;;;;;4.20;1.98;;;21.70;61.50;;;;;;5051976;28;20170;-66
2023/08/13 02:38:32;;;;;;;3.92;1.92;;;21.80;61.50;;;;;;5053112;28;20260;-66
2023/08/13 02:40:57;;;;;;;4.10;1.85;;;21.70;61.60;;;;;;5052750;28;20657;-67
2023/08/13 02:43:26;;;;;;;4.25;2.13;;;21.70;61.50;;;;;;5051881;28;20254;-66
2023/08/13 02:45:52;;;;;;;4.50;2.10;;;21.70;61.60;;;;;;5052781;28;20549;-66
2023/08/13 02:48:17;;;;;;;3.15;2.17;;;21.70;61.40;;;;;;5052446;28;20661;-65
2023/08/13 02:50:43;;;;;;;3.20;1.90;;;21.80;61.50;;;;;;5052022;28;20175;-65
2023/08/13 02:53:08;;;;;;;4.32;2.10;;;21.70;61.40;;;;;;5052549;28;20186;-65
2023/08/13 02:55:34;;;;;;;4.20;2.10;;;21.70;61.60;;;;;;5052676;28;20210;-66
2023/08/13 02:57:59;;;;;;;4.20;1.92;;;21.70;61.50;;;;;;5051851;28;20681;-65
2023/08/13 03:00:25;;;;;;;3.28;2.05;;;21.70;61.40;;;;;;5052534;28;20631;-67
2023/08/13 03:02:50;;;;;;;4.00;1.77;;;21.70;61.70;;;;;;5052633;28;20190;-66
2023/08/13 03:05:16;;;;;;;4.03;2.03;;;21.70;61.40;;;;;;5051765;28;20213;-66
2023/08/13 03:07:41;;;;;;;6.55;2.17;;;21.70;61.30;;;;;;5052533;28;20163;-65
2023/08/13 03:10:07;;;;;;;4.15;2.17;;;21.70;62.20;;;;;;5051655;28;20175;-65
2023/08/13 03:12:33;;;;;;;5.10;2.00;;;21.60;61.30;;;;;;5052553;28;20650;-65
2023/08/13 03:14:58;;;;;;;4.63;1.92;;;21.70;61.50;;;;;;5054756;28;20245;-65
2023/08/13 03:17:24;;;;;;;4.45;2.08;;;21.70;61.50;;;;;;5056098;28;20186;-65
2023/08/13 03:19:49;;;;;;;3.22;1.90;;;21.70;61.60;;;;;;5056793;28;20665;-66
2023/08/13 03:22:15;;;;;;;5.20;2.50;;;21.70;61.60;;;;;;5056439;28;20171;-66
2023/08/13 03:24:41;;;;;;;4.78;1.63;;;21.60;61.40;;;;;;5055935;28;20181;-66
2023/08/13 03:27:06;;;;;;;5.00;2.00;;;21.60;62.60;;;;;;5056237;28;20167;-65
2023/08/13 03:29:32;;;;;;;3.03;1.70;;;21.70;61.60;;;;;;5056637;28;20591;-65
2023/08/13 03:31:57;;;;;;;4.78;2.05;;;21.70;61.40;;;;;;5055802;28;20529;-66
2023/08/13 03:34:23;;;;;;;5.28;2.17;;;21.70;61.40;;;;;;5056216;28;20213;-66
2023/08/13 03:36:48;;;;;;;5.05;2.08;;;21.60;61.40;;;;;;5056418;28;20214;-66
2023/08/13 03:39:14;;;;;;;3.28;1.95;;;21.60;61.30;;;;;;5055447;28;20641;-66
2023/08/13 03:41:39;;;;;;;5.63;2.20;;;21.60;62.10;;;;;;5056307;28;20697;-65
2023/08/13 03:44:05;;;;;;;6.10;2.28;;;21.60;61.50;;;;;;5055576;28;20588;-66
2023/08/13 03:46:31;;;;;;;3.60;2.10;;;21.60;61.40;;;;;;5055433;28;20262;-65
2023/08/13 03:48:56;;;;;;;3.75;2.20;;;21.60;61.50;;;;;;5038081;28;20259;-65
2023/08/13 03:51:22;;;;;;;4.20;1.88;;;21.60;61.50;;;;;;5054684;28;20270;-65
2023/08/13 03:53:47;;;;;;;8.20;2.47;;;21.60;61.40;;;;;;5055184;28;20199;-65
2023/08/13 03:56:13;;;;;;;4.68;2.15;;;21.60;61.50;;;;;;5055557;28;20175;-66
2023/08/13 03:58:38;;;;;;;4.80;2.10;;;21.60;62.40;;;;;;5055900;28;20171;-66
2023/08/13 04:01:05;;;;;;;7.80;2.10;;;21.60;61.60;;;;;;5055064;28;20182;-67
2023/08/13 04:03:31;;;;;;;4.78;2.28;;;21.60;61.40;;;;;;5055993;28;20527;-66
2023/08/13 04:05:56;;;;;;;4.68;2.00;;;21.60;61.60;;;;;;5055823;28;20182;-65
2023/08/13 04:08:22;;;;;;;5.15;2.20;;;21.50;61.60;;;;;;5054981;28;20186;-65
2023/08/13 04:10:48;;;;;;;4.80;2.08;;;21.60;61.70;;;;;;5055930;28;20175;-64
2023/08/13 04:13:14;;;;;;;3.22;2.00;;;21.60;61.70;;;;;;5055308;28;20254;-64
2023/08/13 04:15:39;;;;;;;8.20;2.05;;;21.50;61.50;;;;;;5055050;28;20329;-65
2023/08/13 04:18:05;;;;;;;5.32;1.98;;;21.50;61.50;;;;;;5055249;28;20167;-65
2023/08/13 04:20:31;;;;;;;6.45;2.10;;;21.60;61.60;;;;;;5054954;28;20183;-65
2023/08/13 04:22:56;;;;;;;4.97;2.20;;;21.60;61.70;;;;;;5054156;28;20320;-65
2023/08/13 04:25:22;;;;;;;5.50;2.20;;;21.60;61.70;;;;;;5054349;28;20206;-65
2023/08/13 04:27:47;;;;;;;3.78;1.88;;;21.60;61.90;;;;;;5054411;28;20171;-63
2023/08/13 04:30:13;;;;;;;5.20;2.25;;;21.60;61.90;;;;;;5055345;28;20190;-65
2023/08/13 04:32:39;;;;;;;3.97;1.63;;;21.60;61.80;;;;;;5055553;28;20542;-64
2023/08/13 04:35:05;;;;;;;5.68;2.30;;;21.50;61.60;;;;;;5054178;28;20211;-66
2023/08/13 04:37:31;;;;;;;5.57;2.58;;;21.50;61.50;;;;;;5055519;28;20228;-66
2023/08/13 04:39:57;;;;;;;4.68;2.28;;;21.50;61.70;;;;;;5055048;28;20183;-66
2023/08/13 04:42:23;;;;;;;3.85;2.03;;;21.50;61.70;;;;;;5054270;28;20587;-65
2023/08/13 04:44:48;;;;;;;6.38;2.00;;;21.60;61.80;;;;;;5054909;28;20231;-65
2023/08/13 04:47:14;;;;;;;3.92;1.75;;;21.50;61.60;;;;;;5054891;28;20197;-65
2023/08/13 04:49:39;;;;;;;3.75;2.05;;;21.60;61.70;;;;;;5054345;28;20569;-65
2023/08/13 04:52:05;;;;;;;5.38;2.50;;;21.50;61.60;;;;;;5054791;28;20598;-64
2023/08/13 04:54:30;;;;;;;2.90;1.60;;;21.60;61.70;;;;;;5054909;28;20418;-65
2023/08/13 04:56:56;;;;;;;4.22;1.83;;;21.50;61.70;;;;;;5054190;28;20614;-65
2023/08/13 04:59:22;;;;;;;5.15;2.20;;;21.50;61.70;;;;;;5054609;28;20191;-66
2023/08/13 05:01:47;;;;;;;5.95;2.03;;;21.60;61.90;;;;;;5054844;28;20653;-66
2023/08/13 05:04:13;;;;;;;2.85;1.90;;;21.60;61.90;;;;;;5053758;28;20591;-66
2023/08/13 05:06:39;;;;;;;4.30;2.03;;;21.50;61.90;;;;;;5054554;28;20258;-65
2023/08/13 05:09:04;;;;;;;6.40;1.90;;;21.60;61.90;;;;;;5054268;28;20182;-65
2023/08/13 05:11:30;;;;;;;5.72;2.08;;;21.60;61.90;;;;;;5053805;28;20171;-64
2023/08/13 05:13:55;;;;;;;3.78;1.83;;;21.50;61.80;;;;;;5054396;28;20215;-65
2023/08/13 05:16:21;;;;;;;6.45;2.65;;;21.60;61.90;;;;;;5054300;28;20221;-65
2023/08/13 05:18:46;;;;;;;4.90;2.10;;;21.50;61.90;;;;;;5053845;28;20639;-68
2023/08/13 05:21:12;;;;;;;3.20;1.90;;;21.50;62.10;;;;;;5054139;28;20539;-65
2023/08/13 05:23:37;;;;;;;6.63;1.75;;;21.60;62.20;;;;;;5053962;28;20632;-65
2023/08/13 05:26:03;;;;;;;5.47;2.03;;;21.60;62.30;;;;;;5053567;28;20171;-65
2023/08/13 05:28:28;;;;;;;4.95;2.15;;;21.50;62.20;;;;;;5054202;28;20186;-64
2023/08/13 05:30:54;;;;;;;5.03;1.77;;;21.60;62.30;;;;;;5053664;28;20175;-65
2023/08/13 05:33:20;;;;;;;4.63;1.85;;;21.50;62.30;;;;;;5053865;28;20577;-65
2023/08/13 05:35:45;;;;;;;3.65;1.88;;;21.60;62.30;;;;;;5054132;28;20547;-66
2023/08/13 05:38:11;;;;;;;4.43;1.88;;;21.60;62.20;;;;;;5052627;28;20189;-66
2023/08/13 05:40:36;;;;;;;6.88;2.28;;;21.60;62.40;;;;;;5053987;28;20254;-66
2023/08/13 05:43:02;;;;;;;8.65;2.60;;;21.60;62.30;;;;;;5053648;28;20172;-65
2023/08/13 05:45:27;;;;;;;7.05;2.50;;;21.60;62.30;;;;;;5053088;28;20630;-66
2023/08/13 05:47:53;;;;;;;3.60;1.90;;;21.60;62.30;;;;;;5054023;28;20186;-64
2023/08/13 05:50:18;;;;;;;6.20;2.15;;;21.60;62.50;;;;;;5053827;28;20736;-66
2023/08/13 05:52:44;;;;;;;4.40;2.10;;;21.60;62.50;;;;;;5053168;28;20175;-65
2023/08/13 05:55:10;;;;;;;2.80;1.88;;;21.60;62.50;;;;;;5053428;28;20218;-66
2023/08/13 05:57:36;;;;;;;6.05;2.15;;;21.50;62.40;;;;;;5053779;28;20171;-66
2023/08/13 06:00:05;;;;;;;8.48;2.15;;;21.60;62.50;;;;;;5052613;28;20179;-67
2023/08/13 06:02:31;;;;;;;3.15;2.05;;;21.50;62.50;;;;;;5053616;28;20221;-66
2023/08/13 06:04:56;;;;;;;4.82;1.83;;;21.50;62.50;;;;;;5053381;28;20179;-66
2023/08/13 06:07:22;;;;;;;4.20;2.05;;;21.50;62.60;;;;;;5052763;28;20171;-66
2023/08/13 06:09:47;;;;;;;5.65;1.88;;;21.50;62.70;;;;;;5053373;28;20630;-65
2023/08/13 06:12:13;;;;;;;6.10;1.90;;;21.50;62.70;;;;;;5053057;28;20172;-64
2023/08/13 06:14:38;;;;;;;4.40;2.35;;;21.50;63.50;;;;;;5052539;28;20222;-65
2023/08/13 06:17:04;;;;;;;4.63;2.00;;;21.60;62.80;;;;;;5053028;28;20167;-65
2023/08/13 06:19:30;;;;;;;4.78;1.83;;;21.60;62.80;;;;;;5053305;28;20183;-66
2023/08/13 06:21:55;;;;;;;4.35;1.83;;;21.60;63.10;;;;;;5052549;28;20175;-66
2023/08/13 06:24:21;;;;;;;3.50;1.75;;;21.60;64.00;;;;;;5052672;28;20179;-66
2023/08/13 06:26:46;;;;;;;5.75;1.90;;;21.60;63.10;;;;;;5053039;28;20252;-65
2023/08/13 06:29:12;;;;;;;6.18;2.30;;;21.60;62.90;;;;;;5052399;28;20186;-66
2023/08/13 06:31:37;;;;;;;4.13;1.45;;;21.60;62.90;;;;;;5053355;28;20175;-66
2023/08/13 06:34:03;;;;;;;3.35;1.90;;;21.70;63.10;;;;;;5052179;28;20206;-66
2023/08/13 06:36:29;;;;;;;4.15;1.88;;;21.70;62.90;;;;;;5053306;28;20186;-67
2023/08/13 06:38:54;;;;;;;6.05;1.80;;;21.70;62.90;;;;;;5053014;28;20673;-66
2023/08/13 06:41:20;;;;;;;4.03;1.92;;;21.70;62.90;;;;;;5052275;28;20282;-67
2023/08/13 06:43:45;;;;;;;3.97;1.63;;;21.70;62.90;;;;;;5052891;28;20334;-66
2023/08/13 06:46:11;;;;;;;4.82;2.10;;;21.70;63.90;;;;;;5052759;28;20178;-66
2023/08/13 06:48:38;;;;;;;4.28;1.98;;;21.80;63.10;;;;;;5051646;28;20187;-66
2023/08/13 06:51:04;;;;;;;6.32;2.05;;;21.80;63.10;;;;;;5052655;28;20171;-65
2023/08/13 06:53:29;;;;;;;3.97;1.67;;;21.80;63.10;;;;;;5052882;28;20236;-65
2023/08/13 06:55:55;;;;;;;4.72;2.15;;;21.80;63.10;;;;;;5052147;28;20167;-66
2023/08/13 06:58:20;;;;;;;4.13;1.80;;;21.80;63.20;;;;;;5052487;28;20179;-66
2023/08/13 07:00:46;;;;;;;4.95;1.75;;;21.80;63.20;;;;;;5052942;28;20175;-67
2023/08/13 07:03:12;;;;;;;3.65;2.00;;;21.90;63.20;;;;;;5051820;28;20269;-66
2023/08/13 07:05:39;;;;;;;2.88;1.63;;;21.90;63.30;;;;;;5052775;28;20179;-67
2023/08/13 07:08:05;;;;;;;4.57;2.05;;;21.90;63.30;;;;;;5052340;28;20262;-66
2023/08/13 07:10:31;;;;;;;3.33;1.50;;;21.90;63.20;;;;;;5052206;28;20330;-66
2023/08/13 07:12:56;;;;;;;4.20;1.80;;;21.90;63.30;;;;;;5052628;28;20683;-65
2023/08/13 07:15:22;;;;;;;5.40;1.90;;;21.90;63.30;;;;;;5052375;28;20253;-66
2023/08/13 07:17:47;;;;;;;4.50;1.83;;;21.90;63.30;;;;;;5051949;28;20175;-66
2023/08/13 07:20:14;;;;;;;2.72;1.58;;;21.90;63.30;;;;;;5052279;28;20638;-67
2023/08/13 07:22:41;;;;;;;5.10;1.98;;;22.00;63.60;;;;;;5052414;28;20179;-67
2023/08/13 07:25:08;;;;;;;3.20;2.00;;;21.90;63.50;;;;;;5051550;28;20240;-65
2023/08/13 07:27:34;;;;;;;3.03;1.70;;;22.00;63.60;;;;;;5052446;28;20203;-66
2023/08/13 07:30:00;;;;;;;4.40;1.77;;;22.00;63.60;;;;;;5052423;28;20221;-66
2023/08/13 07:32:26;;;;;;;7.03;1.70;;;22.00;63.60;;;;;;5051713;28;20186;-66
2023/08/13 07:34:52;;;;;;;3.85;1.70;;;22.00;63.50;;;;;;5052322;28;20203;-67
2023/08/13 07:37:17;;;;;;;3.33;1.98;;;22.00;63.50;;;;;;5051573;28;20171;-67
2023/08/13 07:39:43;;;;;;;2.80;1.63;;;22.00;63.60;;;;;;5052427;28;20183;-67
2023/08/13 07:42:09;;;;;;;2.53;1.52;;;22.10;63.60;;;;;;5052281;28;20167;-66
2023/08/13 07:44:35;;;;;;;4.05;1.70;;;22.00;64.50;;;;;;5051390;28;20672;-67
2023/08/13 07:47:01;;;;;;;3.95;2.05;;;22.10;64.40;;;;;;5052113;28;20172;-66
2023/08/13 07:49:27;;;;;;;3.08;1.80;;;22.10;63.50;;;;;;5052263;28;20717;-65
2023/08/13 07:51:52;;;;;;;3.47;1.70;;;22.10;63.50;;;;;;5051474;28;20218;-65
2023/08/13 07:54:19;;;;;;;4.65;1.70;;;22.00;63.50;;;;;;5051754;28;20654;-65
2023/08/13 07:56:45;;;;;;;3.65;2.25;;;22.10;63.60;;;;;;5052467;28;20585;-66
2023/08/13 07:59:10;;;;;;;3.10;1.80;;;22.10;63.50;;;;;;5051340;28;20172;-67
2023/08/13 08:01:36;;;;;;;2.42;1.35;;;22.20;63.50;;;;;;5055255;28;20634;-67
2023/08/13 08:04:03;;;;;;;3.58;1.70;;;22.20;63.50;;;;;;5055615;28;20191;-67
2023/08/13 08:06:29;;;;;;;6.15;1.88;;;22.20;63.50;;;;;;5055131;28;20175;-66
2023/08/13 08:08:54;;;;;;;4.00;1.75;;;22.20;63.60;;;;;;5055725;28;20225;-65
2023/08/13 08:11:20;;;;;;;2.85;1.70;;;22.20;63.50;;;;;;5055566;28;20178;-65
2023/08/13 08:13:45;;;;;;;5.57;1.70;;;22.20;63.60;;;;;;5055063;28;20290;-65
2023/08/13 08:16:11;;;;;;;3.22;1.65;;;22.20;63.50;;;;;;5055113;28;20202;-66
2023/08/13 08:18:36;;;;;;;3.88;1.60;;;22.30;63.50;;;;;;5055661;28;20171;-66
2023/08/13 08:21:02;;;;;;;2.67;1.50;;;22.30;63.50;;;;;;5054523;28;20664;-66
2023/08/13 08:23:28;;;;;;;2.35;1.20;;;22.30;63.60;;;;;;5055502;28;20175;-66
2023/08/13 08:25:53;;;;;;;2.50;1.63;;;22.30;63.50;;;;;;5055812;28;20224;-65
2023/08/13 08:28:19;;;;;;;4.30;1.67;;;22.30;63.50;;;;;;5054587;28;20171;-67
2023/08/13 08:30:44;;;;;;;2.50;1.50;;;22.40;63.50;;;;;;5055550;28;20179;-65
2023/08/13 08:33:10;;;;;;;2.55;1.40;;;22.40;63.50;;;;;;5054987;28;20199;-66
2023/08/13 08:35:36;;;;;;;2.63;1.58;;;22.40;63.40;;;;;;5054421;28;20211;-67
2023/08/13 08:38:01;;;;;;;3.63;1.75;;;22.50;63.40;;;;;;5055126;28;20178;-67
2023/08/13 08:40:27;;;;;;;2.53;1.38;;;22.50;63.30;;;;;;5055134;28;20179;-67
2023/08/13 08:42:53;;;;;;;5.45;1.92;;;22.50;63.40;;;;;;5054327;28;20175;-66
2023/08/13 08:45:19;;;;;;;2.15;1.65;;;22.50;63.50;;;;;;5053757;28;20202;-69
2023/08/13 08:47:45;;;;;;;1.80;1.67;;;22.50;63.50;;;;;;5054606;28;20180;-65
2023/08/13 08:50:12;;;;;;;1.98;1.60;;;22.50;63.40;;;;;;5053586;28;20597;-66
2023/08/13 08:52:38;;;;;;;3.75;1.48;;;22.60;63.40;;;;;;5055262;28;20198;-65
2023/08/13 08:55:04;;;;;;;2.40;1.35;;;22.50;63.30;;;;;;5054037;28;20674;-66
2023/08/13 08:57:29;;;;;;;2.13;1.23;;;22.60;63.30;;;;;;5055079;28;20175;-66
2023/08/13 08:59:55;;;;;;;5.53;2.00;;;22.60;63.40;;;;;;5054879;28;20182;-67
2023/08/13 09:02:20;;;;;;;2.97;1.50;;;22.60;63.40;;;;;;5053906;28;20254;-67
2023/08/13 09:04:46;;;;;;;2.63;1.40;;;22.60;63.50;;;;;;5054817;28;20547;-67
2023/08/13 09:07:12;;;;;;;2.80;1.20;;;22.50;63.50;;;;;;5054272;28;20171;-66
2023/08/13 09:09:37;;;;;;;4.80;1.70;;;22.50;63.50;;;;;;5054108;28;20175;-65
2023/08/13 09:12:03;;;;;;;2.63;1.20;;;22.60;63.50;;;;;;5053825;28;20256;-65
2023/08/13 09:14:29;;;;;;;2.88;1.50;;;22.60;63.50;;;;;;5054697;28;20665;-66
2023/08/13 09:16:56;;;;;;;5.03;1.85;;;22.60;63.50;;;;;;5053870;28;20179;-66
2023/08/13 09:19:25;;;;;;;2.72;1.30;;;22.70;63.40;;;;;;5054305;28;20182;-66
2023/08/13 09:21:54;;;;;;;2.65;1.20;;;22.60;63.40;;;;;;5054402;28;20175;-66
2023/08/13 09:24:35;;;;;;;2.50;1.40;;;22.60;63.40;;;;;;5053550;28;20372;-66
2023/08/13 09:27:01;;;;;;;5.10;1.77;;;22.60;63.50;;;;;;5054343;28;20190;-66
2023/08/13 09:29:27;;;;;;;2.47;1.65;;;22.60;63.60;;;;;;5053369;28;20210;-66
2023/08/13 09:31:53;;;;;;;2.80;1.48;;;22.60;63.70;;;;;;5053507;28;20202;-66
2023/08/13 09:34:20;;;;;;;2.72;1.50;;;22.60;63.70;;;;;;5052597;28;20222;-67
2023/08/13 09:36:46;;;;;;;4.22;1.60;;;22.60;63.60;;;;;;5054198;28;20573;-67
2023/08/13 09:39:12;;;;;;;3.72;2.28;;;22.60;63.50;;;;;;5053115;28;20206;-67
2023/08/13 09:41:37;;;;;;;3.65;1.65;;;22.60;63.50;;;;;;5054141;28;20175;-67
2023/08/13 09:44:09;;;;;;;5.63;2.00;;;22.60;63.70;;;;;;5052914;28;20246;-66
2023/08/13 09:46:35;;;;;;;3.03;1.70;;;22.50;63.60;;;;;;5054052;28;20237;-66
2023/08/13 09:49:00;;;;;;;2.88;1.33;;;22.60;63.70;;;;;;5052889;28;20171;-66
2023/08/13 09:51:32;;;;;;;2.72;1.83;;;22.60;63.70;;;;;;5053346;28;20171;-65
2023/08/13 09:54:29;;;;;;;3.92;1.70;;;22.60;63.70;;;;;;5053684;28;20682;-66
2023/08/13 09:57:01;;;;;;;3.85;1.55;;;22.60;63.70;;;;;;5045904;28;20545;-66
2023/08/13 09:59:27;;;;;;;3.00;1.60;;;22.60;63.70;;;;;;5051884;28;20325;-67
2023/08/13 10:01:53;;;;;;;2.58;1.52;;;22.60;63.60;;;;;;5053891;28;20257;-67
2023/08/13 10:04:18;;;;;;;6.18;1.70;;;22.60;63.50;;;;;;5035850;28;20530;-67
2023/08/13 10:06:44;;;;;;;4.20;1.60;;;22.60;64.50;;;;;;5051854;28;20296;-66
2023/08/13 10:09:10;;;;;;;3.78;1.50;;;22.60;63.70;;;;;;5053273;28;20664;-66
2023/08/13 10:11:36;;;;;;;4.25;1.98;;;22.60;63.70;;;;;;5053422;28;20175;-65
2023/08/13 10:14:01;;;;;;;3.45;1.77;;;22.60;63.70;;;;;;5052606;28;20218;-66
2023/08/13 10:16:27;;;;;;;2.60;1.52;;;22.60;63.70;;;;;;5052441;28;20167;-66
2023/08/13 10:18:57;;;;;;;3.13;1.70;;;22.60;63.60;;;;;;5052341;28;20305;-67
2023/08/13 10:21:33;;;;;;;2.30;1.40;;;22.60;63.50;;;;;;5051558;28;20182;-66
2023/08/13 10:24:03;;;;;;;3.30;1.88;;;22.60;63.40;;;;;;5052180;28;20174;-66
2023/08/13 10:26:28;;;;;;;2.40;1.52;;;22.70;63.40;;;;;;5052683;28;20580;-66
2023/08/13 10:28:54;;;;;;;2.90;1.60;;;22.70;63.30;;;;;;5053355;28;20179;-66
2023/08/13 10:31:23;;;;;;;2.65;1.40;;;22.70;63.40;;;;;;5052995;28;20181;-66
2023/08/13 10:34:09;;;;;;;2.88;1.63;;;22.70;63.30;;;;;;5052474;28;20186;-66
2023/08/13 10:36:53;;;;;;;2.97;1.50;;;22.70;63.20;;;;;;5053149;28;20187;-67
2023/08/13 10:39:30;;;;;;;2.60;1.48;;;22.80;63.40;;;;;;5052629;28;20179;-68
2023/08/13 10:41:56;;;;;;;1.88;1.20;;;22.70;63.20;;;;;;5052262;28;20179;-66
2023/08/13 10:44:31;;;;;;;6.00;1.88;;;22.70;63.30;;;;;;5052394;28;20241;-67
2023/08/13 10:46:57;;;;;;;4.05;1.80;;;22.80;63.30;;;;;;5052812;28;20174;-66
2023/08/13 10:49:24;;;;;;;3.00;1.58;;;22.70;64.10;;;;;;5052489;28;20541;-66
2023/08/13 10:51:50;;;;;;;3.63;1.58;;;22.80;63.30;;;;;;5053083;28;20171;-65
2023/08/13 10:54:16;;;;;;;4.03;1.50;;;22.80;64.10;;;;;;5052287;28;20252;-66
2023/08/13 10:56:45;;;;;;;3.22;1.80;;;22.80;63.30;;;;;;5051934;28;20262;-68
2023/08/13 10:59:11;;;;;;;2.80;1.33;;;22.80;63.40;;;;;;5051511;28;20213;-67
2023/08/13 11:02:01;;;;;;;3.97;1.50;;;22.80;63.40;;;;;;5052019;28;20618;-68
2023/08/13 11:04:26;;;;;;;4.60;1.63;;;22.80;63.40;;;;;;5052021;28;20180;-68
2023/08/13 11:06:52;;;;;;;2.75;1.48;;;22.60;63.40;;;;;;5035264;28;20244;-65
2023/08/13 11:09:17;;;;;;;3.55;1.50;;;22.70;63.50;;;;;;5034038;28;20570;-66
2023/08/13 11:11:43;;;;;;;3.83;1.70;;;22.80;63.50;;;;;;5051722;28;20175;-66
2023/08/13 11:14:09;;;;;;;3.38;1.63;;;22.80;63.30;;;;;;5050952;28;20218;-66
2023/08/13 11:16:34;;;;;;;3.08;1.45;;;22.80;63.20;;;;;;5050599;28;20182;-66
2023/08/13 11:19:02;;;;;;;4.30;1.85;;;22.80;63.30;;;;;;5052302;28;20179;-67
2023/08/13 11:21:28;;;;;;;2.92;1.25;;;22.70;63.40;;;;;;5052585;28;20179;-67
2023/08/13 11:23:53;;;;;;;2.95;1.58;;;22.70;63.50;;;;;;5051692;28;20182;-66
2023/08/13 11:26:20;;;;;;;3.60;1.60;;;22.70;63.60;;;;;;5052262;28;20171;-66
2023/08/13 11:28:45;;;;;;;4.28;1.88;;;22.70;63.70;;;;;;5051278;28;20254;-66
2023/08/13 11:31:11;;;;;;;3.72;1.85;;;22.60;63.70;;;;;;5051738;28;20274;-66
2023/08/13 11:33:36;;;;;;;2.80;1.50;;;22.60;64.60;;;;;;5052276;28;20257;-67
2023/08/13 11:36:02;;;;;;;3.80;1.65;;;22.60;63.80;;;;;;5053340;28;20215;-67
2023/08/13 11:38:27;;;;;;;2.80;1.55;;;22.60;63.90;;;;;;5055666;28;20171;-68
2023/08/13 11:40:54;;;;;;;4.68;1.70;;;22.60;63.90;;;;;;5056438;28;20179;-67
2023/08/13 11:43:19;;;;;;;2.63;1.42;;;22.60;63.80;;;;;;5055809;28;20218;-67
2023/08/13 11:45:47;;;;;;;4.72;1.90;;;22.70;64.30;;;;;;5055833;28;20523;-66
2023/08/13 11:48:18;;;;;;;2.97;1.38;;;22.80;63.50;;;;;;5054985;28;20186;-66
2023/08/13 11:50:48;;;;;;;3.00;1.50;;;22.70;63.50;;;;;;5055618;28;20535;-66
2023/08/13 11:53:15;;;;;;;2.75;1.75;;;22.70;63.50;;;;;;5055720;28;20638;-65
2023/08/13 11:55:43;;;;;;;2.22;1.30;;;22.70;63.60;;;;;;5056043;28;20293;-66
2023/08/13 11:58:08;;;;;;;4.00;1.30;;;22.60;63.60;;;;;;5055291;28;20511;-66
2023/08/13 12:00:34;;;;;;;3.42;1.73;;;22.70;63.70;;;;;;5056275;28;20179;-67
2023/08/13 12:02:59;;;;;;;2.42;1.45;;;22.70;63.70;;;;;;5055868;28;20182;-66
2023/08/13 12:05:26;;;;;;;3.42;1.50;;;22.70;63.70;;;;;;5055148;28;20717;-66
2023/08/13 12:07:52;;;;;;;3.08;1.55;;;22.70;63.60;;;;;;5055782;28;20221;-65
2023/08/13 12:10:18;;;;;;;2.20;1.48;;;22.70;63.60;;;;;;5055365;28;20171;-65
2023/08/13 12:12:43;;;;;;;3.47;1.55;;;22.60;63.60;;;;;;5055222;28;20217;-66
2023/08/13 12:15:09;;;;;;;2.80;1.52;;;22.70;63.60;;;;;;5055358;28;20218;-66
2023/08/13 12:17:35;;;;;;;3.92;2.17;;;22.60;63.60;;;;;;5055829;28;20178;-66
2023/08/13 12:20:00;;;;;;;1.55;1.20;;;22.60;63.60;;;;;;5054603;28;20171;-67
2023/08/13 12:22:26;;;;;;;3.72;1.90;;;22.80;63.40;;;;;;5055526;28;20254;-67
2023/08/13 12:24:51;;;;;;;4.32;1.35;;;22.90;62.80;;;;;;5055518;28;20643;-67
2023/08/13 12:27:17;;;;;;;2.50;1.45;;;23.00;62.90;;;;;;5054621;28;20661;-65
2023/08/13 12:29:42;;;;;;;3.47;1.63;;;23.10;62.60;;;;;;5055434;28;20167;-66
2023/08/13 12:32:08;;;;;;;4.43;1.67;;;23.00;62.60;;;;;;5055129;28;20232;-66
2023/08/13 12:34:33;;;;;;;3.85;1.65;;;23.00;62.70;;;;;;5054629;28;20202;-67
2023/08/13 12:36:59;;;;;;;3.55;1.85;;;23.00;62.70;;;;;;5055145;28;20171;-66
2023/08/13 12:39:24;;;;;;;3.30;1.40;;;23.00;62.80;;;;;;5055125;28;20308;-67
2023/08/13 12:41:50;;;;;;;2.65;1.27;;;23.00;62.70;;;;;;5054476;28;20167;-66
2023/08/13 12:44:15;;;;;;;2.80;1.65;;;23.10;63.20;;;;;;5054711;28;20292;-67